.
WxDataArchive / Data Records for 2010-04-18
2010-04-17 April 2010 2010-04-19

Data Records for Sunday, 18 April 2010

Time	Temp	Chill	HIndex	Humid	Dewpt	 Wind 	HiWind	WindDir	Rain 	Barom 
-----	----	-----	------	-----	-----	------	------	-------	-----	----- 
00:00	40.2	40.2	40.2	49	22.6	0	0	---	0.00	30.117 
00:05	39.9	39.9	39.9	50	22.8	0	1	315	0.00	30.117 
00:10	39.9	39.9	39.9	50	22.8	0	1	315	0.00	30.117 
00:15	39.9	39.9	39.9	50	22.8	0	1	315	0.00	30.121 
00:20	39.8	39.8	39.8	51	23.2	0	0	---	0.00	30.121 
00:25	39.6	39.6	39.6	52	23.4	0	0	---	0.00	30.121 
00:30	39.5	39.5	39.5	52	23.3	0	0	---	0.00	30.124 
00:35	39.3	39.3	39.3	52	23.2	0	0	---	0.00	30.124 
00:40	39.2	39.2	39.2	53	23.5	0	0	---	0.00	30.124 
00:45	39.1	39.1	39.1	54	23.9	0	0	---	0.00	30.125 
00:50	38.9	38.9	38.9	54	23.7	0	0	---	0.00	30.125 
00:55	38.8	38.8	38.8	54	23.6	0	0	---	0.00	30.125 
01:00	38.5	38.5	38.5	55	23.8	0	0	---	0.00	30.126 
01:05	38.3	38.3	38.3	56	24.0	0	0	---	0.00	30.126 
01:10	38.2	38.2	38.2	56	23.9	0	0	---	0.00	30.126 
01:15	37.9	37.9	37.9	57	24.0	0	0	---	0.00	30.127 
01:20	37.6	37.6	37.6	58	24.2	0	0	---	0.00	30.127 
01:25	37.3	37.3	37.3	59	24.3	0	0	---	0.00	30.127 
01:30	37.0	37.0	37.0	60	24.4	0	0	---	0.00	30.129 
01:35	36.8	36.8	36.8	61	24.6	0	0	---	0.00	30.129 
01:40	36.5	36.5	36.5	62	24.7	0	0	---	0.00	30.129 
01:45	36.3	36.3	36.3	62	24.5	0	0	---	0.00	30.126 
01:50	36.0	36.0	36.0	63	24.6	0	0	---	0.00	30.126 
01:55	35.8	35.8	35.8	64	24.8	0	0	---	0.00	30.126 
02:00	35.5	35.5	35.5	65	24.9	0	0	---	0.00	30.125 
02:05	35.3	35.3	35.3	66	25.1	0	0	---	0.00	30.125 
02:10	35.0	35.0	35.0	67	25.2	0	0	---	0.00	30.125 
02:15	34.9	34.9	34.9	68	25.4	0	0	---	0.00	30.125 
02:20	34.7	34.7	34.7	68	25.2	0	0	---	0.00	30.125 
02:25	34.4	34.4	34.4	68	24.9	0	0	---	0.00	30.125 
02:30	34.3	34.3	34.3	69	25.2	0	0	---	0.00	30.124 
02:35	34.0	34.0	34.0	70	25.3	0	0	---	0.00	30.124 
02:40	33.8	33.8	33.8	70	25.1	0	0	---	0.00	30.124 
02:45	33.5	33.5	33.5	71	25.1	0	0	---	0.00	30.120 
02:50	33.4	33.4	33.4	72	25.4	0	0	---	0.00	30.120 
02:55	33.2	33.2	33.2	73	25.5	0	0	---	0.00	30.120 
03:00	33.1	33.1	33.1	73	25.4	0	0	---	0.00	30.121 
03:05	32.9	32.9	32.9	74	25.5	0	0	---	0.00	30.121 
03:10	32.8	32.8	32.8	75	25.8	0	0	---	0.00	30.121 
03:15	32.8	32.8	32.8	76	26.1	0	0	---	0.00	30.125 
03:20	32.7	32.7	32.7	77	26.3	0	0	---	0.00	30.125 
03:25	32.7	32.7	32.7	78	26.6	0	0	---	0.00	30.125 
03:30	32.5	32.5	32.5	78	26.4	0	0	---	0.00	30.126 
03:35	32.4	32.4	32.4	78	26.3	0	0	---	0.00	30.126 
03:40	32.4	32.4	32.4	78	26.3	0	0	---	0.00	30.126 
03:45	32.2	32.2	32.2	79	26.4	0	0	---	0.00	30.130 
03:50	32.1	32.1	32.1	79	26.3	0	0	---	0.00	30.130 
03:55	31.9	31.9	31.9	79	26.1	0	0	---	0.00	30.130 
04:00	31.8	31.8	31.8	79	26.0	0	0	---	0.00	30.132 
04:05	31.8	31.8	31.8	80	26.3	0	0	---	0.00	30.132 
04:10	31.8	31.8	31.8	79	26.0	0	0	---	0.00	30.132 
04:15	31.6	31.6	31.6	79	25.8	0	0	---	0.00	30.134 
04:20	31.6	31.6	31.6	79	25.8	0	0	---	0.00	30.134 
04:25	31.6	31.6	31.6	80	26.2	0	0	---	0.00	30.134 
04:30	31.6	31.6	31.6	79	25.8	0	0	---	0.00	30.135 
04:35	31.5	31.5	31.5	80	26.1	0	0	---	0.00	30.135 
04:40	31.8	31.8	31.8	80	26.3	0	0	---	0.00	30.135 
04:45	31.9	31.9	31.9	80	26.4	0	0	---	0.00	30.139 
04:50	32.1	32.1	32.1	80	26.6	0	0	---	0.00	30.139 
04:55	32.1	32.1	32.1	80	26.6	0	0	---	0.00	30.139 
05:00	32.2	32.2	32.2	79	26.4	0	0	---	0.00	30.148 
05:05	32.4	32.4	32.4	79	26.6	0	0	---	0.00	30.148 
05:10	32.4	32.4	32.4	78	26.3	0	0	---	0.00	30.148 
05:15	32.4	32.4	32.4	78	26.3	0	0	---	0.00	30.151 
05:20	32.2	32.2	32.2	78	26.1	0	0	---	0.00	30.151 
05:25	32.1	32.1	32.1	78	26.0	0	0	---	0.00	30.151 
05:30	32.1	32.1	32.1	78	26.0	0	0	---	0.00	30.152 
05:35	31.9	31.9	31.9	78	25.8	0	0	---	0.00	30.152 
05:40	31.8	31.8	31.8	78	25.7	0	0	---	0.00	30.152 
05:45	31.8	31.8	31.8	78	25.7	0	0	---	0.00	30.154 
05:50	31.8	31.8	31.8	79	26.0	0	0	---	0.00	30.154 
05:55	31.6	31.6	31.6	79	25.8	0	0	---	0.00	30.154 
06:00	31.6	31.6	31.6	79	25.8	0	0	---	0.00	30.160 
06:05	31.5	31.5	31.5	79	25.8	0	0	---	0.00	30.160 
06:10	31.3	31.3	31.3	79	25.6	0	0	---	0.00	30.160 
06:15	31.3	31.3	31.3	80	25.9	0	0	---	0.00	30.165 
06:20	31.2	31.2	31.2	80	25.8	0	0	---	0.00	30.165 
06:25	31.0	31.0	31.0	80	25.6	0	0	---	0.00	30.165 
06:30	30.9	30.9	30.9	80	25.5	0	0	---	0.00	30.165 
06:35	30.7	30.7	30.7	81	25.6	0	0	---	0.00	30.165 
06:40	30.7	30.7	30.7	81	25.6	0	0	---	0.00	30.165 
06:45	30.7	30.7	30.7	81	25.6	0	0	---	0.00	30.167 
06:50	30.7	30.7	30.7	82	25.9	0	0	---	0.00	30.167 
06:55	30.7	30.7	30.7	82	25.9	0	0	---	0.00	30.167 
07:00	30.7	30.7	30.7	82	25.9	0	0	---	0.00	30.167 
07:05	30.9	30.9	30.9	82	26.1	0	0	---	0.00	30.167 
07:10	31.2	31.2	31.2	83	26.6	0	0	---	0.00	30.167 
07:15	31.3	31.3	31.3	83	26.7	0	0	---	0.00	30.170 
07:20	31.6	31.6	31.6	83	27.0	0	0	---	0.00	30.170 
07:25	31.9	31.9	31.9	82	27.0	0	0	---	0.00	30.170 
07:30	32.2	32.2	32.2	81	27.0	0	0	---	0.00	30.170 
07:35	32.5	32.5	32.5	81	27.3	0	1	315	0.00	30.170 
07:40	32.8	32.8	32.8	81	27.6	0	0	---	0.00	30.170 
07:45	33.2	33.2	33.2	80	27.7	0	1	315	0.00	30.176 
07:50	33.7	33.7	33.7	80	28.2	0	1	315	0.00	30.176 
07:55	34.1	34.1	34.1	79	28.3	0	1	315	0.00	30.176 
08:00	34.6	34.6	34.6	79	28.8	0	2	315	0.00	30.179 
08:05	35.0	35.0	35.0	78	28.8	0	2	315	0.00	30.179 
08:10	35.6	35.6	35.6	77	29.1	0	2	315	0.00	30.179 
08:15	36.0	36.0	36.0	77	29.5	0	1	315	0.00	30.185 
08:20	36.6	36.6	36.6	76	29.8	0	1	315	0.00	30.185 
08:25	37.0	37.0	37.0	74	29.5	0	2	315	0.00	30.185 
08:30	37.5	37.5	37.5	74	30.0	0	2	315	0.00	30.190 
08:35	37.9	37.9	37.9	73	30.0	0	2	315	0.00	30.190 
08:40	38.3	38.3	38.3	73	30.4	0	1	315	0.00	30.190 
08:45	38.8	38.8	38.8	71	30.2	1	4	270	0.00	30.193 
08:50	39.3	39.3	39.3	71	30.7	0	3	270	0.00	30.193 
08:55	39.6	39.6	39.6	69	30.3	0	3	0	0.00	30.193 
09:00	39.9	39.9	39.9	68	30.2	0	1	0	0.00	30.193 
09:05	40.3	40.3	40.3	68	30.6	0	2	0	0.00	30.193 
09:10	40.5	40.5	40.5	66	30.0	0	3	0	0.00	30.193 
09:15	40.9	40.9	40.9	67	30.8	0	2	0	0.00	30.202 
09:20	41.5	41.5	41.5	66	31.0	0	1	0	0.00	30.202 
09:25	42.1	42.1	42.1	66	31.6	0	1	0	0.00	30.202 
09:30	42.5	42.5	42.5	66	32.0	0	2	0	0.00	30.205 
09:35	42.6	42.6	42.6	63	30.9	1	3	270	0.00	30.205 
09:40	42.8	42.8	42.8	63	31.1	1	3	270	0.00	30.205 
09:45	43.1	43.1	43.1	63	31.4	1	3	270	0.00	30.205 
09:50	43.2	43.2	43.2	63	31.5	1	2	270	0.00	30.205 
09:55	43.6	43.6	43.6	64	32.2	1	2	270	0.00	30.205 
10:00	44.1	44.1	44.1	63	32.3	1	3	0	0.00	30.200 
10:05	44.1	44.1	44.1	61	31.5	1	4	225	0.00	30.200 
10:10	44.6	44.6	44.6	62	32.4	0	2	315	0.00	30.200 
10:15	44.9	44.9	44.9	60	31.9	1	3	315	0.00	30.206 
10:20	45.2	45.2	45.2	62	33.0	0	2	315	0.00	30.206 
10:25	45.8	45.8	45.8	59	32.3	0	3	292	0.00	30.206 
10:30	46.0	46.0	46.0	58	32.1	0	2	292	0.00	30.207 
10:35	46.5	46.5	46.5	58	32.5	0	2	292	0.00	30.207 
10:40	47.0	47.0	47.0	59	33.4	1	3	292	0.00	30.207 
10:45	47.1	47.1	47.1	58	33.1	1	3	315	0.00	30.204 
10:50	47.3	47.3	47.3	57	32.8	1	3	270	0.00	30.204 
10:55	47.3	47.3	47.3	58	33.3	1	3	248	0.00	30.204 
11:00	47.3	47.3	47.3	56	32.4	1	3	338	0.00	30.206 
11:05	47.3	47.3	47.3	55	32.0	1	4	292	0.00	30.206 
11:10	47.6	47.6	47.6	59	34.0	1	3	292	0.00	30.206 
11:15	47.9	47.9	47.9	55	32.5	1	3	292	0.00	30.207 
11:20	48.5	48.5	48.5	58	34.4	1	3	270	0.00	30.207 
11:25	49.2	49.2	49.2	55	33.7	0	5	90	0.00	30.207 
11:30	49.6	49.6	49.6	56	34.6	0	2	90	0.00	30.210 
11:35	49.8	49.8	49.8	54	33.8	1	2	90	0.00	30.210 
11:40	49.9	49.9	49.9	60	36.6	1	3	270	0.00	30.210 
11:45	50.5	50.5	50.5	54	34.5	1	3	90	0.00	30.211 
11:50	50.8	50.8	50.8	55	35.2	1	3	68	0.00	30.211 
11:55	50.5	50.5	50.5	56	35.4	1	3	315	0.00	30.211 
12:00	50.7	50.7	50.7	56	35.6	0	2	0	0.00	30.204 
12:05	50.8	50.8	50.8	54	34.8	1	3	0	0.00	30.204 
12:10	50.8	50.8	50.8	52	33.8	1	2	292	0.00	30.204 
12:15	51.3	51.3	51.3	54	35.2	1	3	338	0.00	30.203 
12:20	51.4	51.4	51.4	53	34.8	1	3	338	0.00	30.203 
12:25	51.9	51.9	51.9	57	37.1	1	2	315	0.00	30.203 
12:30	52.2	52.2	52.2	58	37.9	0	3	45	0.00	30.194 
12:35	52.5	52.5	52.5	55	36.8	0	3	338	0.00	30.194 
12:40	52.0	52.0	52.0	52	34.9	1	2	338	0.00	30.194 
12:45	52.2	52.2	52.2	56	37.0	1	2	338	0.00	30.190 
12:50	52.8	52.8	52.8	57	38.0	1	3	225	0.00	30.190 
12:55	52.9	52.9	52.9	54	36.7	1	2	0	0.00	30.190 
13:00	52.9	52.9	52.9	51	35.3	0	3	45	0.00	30.188 
13:05	53.5	53.5	53.5	52	36.3	1	2	338	0.00	30.188 
13:10	53.8	53.8	53.8	52	36.6	1	2	225	0.00	30.188 
13:15	53.6	53.6	53.6	52	36.4	1	3	68	0.00	30.189 
13:20	54.1	54.1	54.1	51	36.4	1	4	270	0.00	30.189 
13:25	54.4	54.4	54.4	50	36.2	1	4	90	0.00	30.189 
13:30	53.9	53.9	53.9	48	34.7	1	5	338	0.00	30.183 
13:35	53.6	53.6	53.6	52	36.4	1	4	292	0.00	30.183 
13:40	53.9	53.9	53.9	52	36.7	0	2	270	0.00	30.183 
13:45	54.5	54.5	54.5	53	37.7	2	5	90	0.00	30.177 
13:50	55.0	55.0	55.0	50	36.7	1	5	68	0.00	30.177 
13:55	55.0	55.0	55.0	49	36.2	1	4	68	0.00	30.177 
14:00	55.0	55.0	55.0	51	37.2	1	4	90	0.00	30.177 
14:05	55.1	55.1	55.1	51	37.3	1	2	292	0.00	30.177 
14:10	55.0	55.0	55.0	46	34.6	1	3	292	0.00	30.177 
14:15	55.3	55.3	55.3	56	39.9	1	3	45	0.00	30.178 
14:20	55.3	55.3	55.3	50	37.0	1	3	68	0.00	30.178 
14:25	54.4	54.4	54.4	47	34.6	1	3	292	0.00	30.178 
14:30	54.5	54.5	54.5	47	34.7	1	2	292	0.00	30.176 
14:35	55.0	55.0	55.0	48	35.7	1	2	292	0.00	30.176 
14:40	55.3	55.3	55.3	49	36.5	1	4	112	0.00	30.176 
14:45	55.4	55.4	55.4	51	37.6	1	4	112	0.00	30.175 
14:50	55.9	55.9	55.9	50	37.5	0	2	315	0.00	30.175 
14:55	56.3	56.3	56.3	51	38.4	0	2	292	0.00	30.175 
15:00	56.2	56.2	56.2	46	35.7	1	4	135	0.00	30.179 
15:05	56.5	56.5	56.5	50	38.1	1	3	112	0.00	30.179 
15:10	56.7	56.7	56.7	48	37.2	1	3	45	0.00	30.179 
15:15	56.5	56.5	56.5	47	36.5	1	3	315	0.00	30.177 
15:20	56.3	56.3	56.3	46	35.8	0	2	315	0.00	30.177 
15:25	56.7	56.7	56.7	48	37.2	0	3	68	0.00	30.177 
15:30	57.0	57.0	57.0	45	35.9	2	7	90	0.00	30.176 
15:35	56.9	56.9	56.9	45	35.8	0	7	90	0.00	30.176 
15:40	56.3	56.3	56.3	45	35.2	0	2	90	0.00	30.176 
15:45	56.0	56.0	56.0	48	36.6	0	2	90	0.00	30.173 
15:50	56.0	56.0	56.0	47	36.1	0	1	90	0.00	30.173 
15:55	55.9	55.9	55.9	47	36.0	0	1	90	0.00	30.173 
16:00	55.6	55.6	55.6	45	34.6	0	1	90	0.00	30.167 
16:05	56.2	56.2	56.2	49	37.3	0	2	90	0.00	30.167 
16:10	57.0	57.0	57.0	48	37.5	1	2	90	0.00	30.167 
16:15	58.0	58.0	58.0	45	36.8	1	4	270	0.00	30.158 
16:20	58.3	58.3	58.3	46	37.6	1	3	248	0.00	30.158 
16:25	58.3	58.3	58.3	43	35.9	1	4	270	0.00	30.158 
16:30	58.4	58.4	58.4	46	37.7	1	2	270	0.00	30.155 
16:35	58.7	58.7	58.7	44	36.8	0	3	248	0.00	30.155 
16:40	59.0	59.0	59.0	44	37.1	0	3	90	0.00	30.155 
16:45	59.0	59.0	59.0	44	37.1	1	2	248	0.00	30.151 
16:50	58.7	58.7	58.7	44	36.8	1	3	270	0.00	30.151 
16:55	58.7	58.7	58.7	43	36.3	0	2	270	0.00	30.151 
17:00	58.9	58.9	58.9	45	37.6	1	3	22	0.00	30.146 
17:05	59.0	59.0	59.0	46	38.2	0	1	22	0.00	30.146 
17:10	58.7	58.7	58.7	42	35.7	1	2	315	0.00	30.146 
17:15	58.1	58.1	58.1	43	35.7	1	4	270	0.00	30.146 
17:20	57.5	57.5	57.5	43	35.2	0	1	292	0.00	30.146 
17:25	57.2	57.2	57.2	43	34.9	1	3	22	0.00	30.146 
17:30	57.5	57.5	57.5	44	35.8	1	4	22	0.00	30.143 
17:35	57.8	57.8	57.8	46	37.2	1	5	112	0.00	30.143 
17:40	58.3	58.3	58.3	44	36.5	1	4	0	0.00	30.143 
17:45	58.6	58.6	58.6	45	37.3	0	2	248	0.00	30.141 
17:50	58.6	58.6	58.6	42	35.6	1	4	90	0.00	30.141 
17:55	58.6	58.6	58.6	44	36.8	1	2	90	0.00	30.141 
18:00	58.3	58.3	58.3	44	36.5	1	3	135	0.00	30.142 
18:05	57.6	57.6	57.6	43	35.3	1	3	0	0.00	30.142 
18:10	57.3	57.3	57.3	44	35.6	1	4	270	0.00	30.142 
18:15	57.5	57.5	57.5	43	35.2	0	2	270	0.00	30.144 
18:20	57.5	57.5	57.5	43	35.2	0	1	270	0.00	30.144 
18:25	57.5	57.5	57.5	45	36.3	0	1	270	0.00	30.144 
18:30	57.5	57.5	57.5	45	36.3	0	1	270	0.00	30.145 
18:35	57.2	57.2	57.2	44	35.5	0	3	45	0.00	30.145 
18:40	57.0	57.0	57.0	45	35.9	0	1	45	0.00	30.145 
18:45	56.9	56.9	56.9	46	36.3	0	1	45	0.00	30.144 
18:50	56.7	56.7	56.7	45	35.6	0	1	45	0.00	30.144 
18:55	56.7	56.7	56.7	46	36.2	0	1	45	0.00	30.144 
19:00	56.6	56.6	56.6	44	34.9	0	1	45	0.00	30.146 
19:05	56.3	56.3	56.3	47	36.3	0	1	45	0.00	30.146 
19:10	56.0	56.0	56.0	46	35.5	0	1	45	0.00	30.146 
19:15	55.9	55.9	55.9	46	35.4	0	1	45	0.00	30.148 
19:20	55.7	55.7	55.7	47	35.8	0	1	45	0.00	30.148 
19:25	55.7	55.7	55.7	47	35.8	0	2	45	0.00	30.148 
19:30	55.9	55.9	55.9	46	35.4	0	1	90	0.00	30.144 
19:35	55.7	55.7	55.7	46	35.2	0	2	45	0.00	30.144 
19:40	55.7	55.7	55.7	47	35.8	0	2	292	0.00	30.144 
19:45	55.6	55.6	55.6	47	35.7	0	1	292	0.00	30.146 
19:50	55.4	55.4	55.4	46	35.0	0	2	292	0.00	30.146 
19:55	55.4	55.4	55.4	47	35.5	0	1	292	0.00	30.146 
20:00	55.3	55.3	55.3	48	35.9	0	1	292	0.00	30.147 
20:05	55.1	55.1	55.1	47	35.2	0	0	---	0.00	30.147 
20:10	54.8	54.8	54.8	48	35.5	0	1	292	0.00	30.147 
20:15	54.7	54.7	54.7	49	35.9	0	1	292	0.00	30.145 
20:20	54.4	54.4	54.4	50	36.2	0	1	292	0.00	30.145 
20:25	53.9	53.9	53.9	50	35.7	0	1	292	0.00	30.145 
20:30	53.6	53.6	53.6	51	35.9	0	0	---	0.00	30.150 
20:35	53.5	53.5	53.5	52	36.3	0	0	---	0.00	30.150 
20:40	53.2	53.2	53.2	52	36.0	0	0	---	0.00	30.150 
20:45	52.9	52.9	52.9	53	36.2	0	0	---	0.00	30.155 
20:50	52.6	52.6	52.6	54	36.4	0	1	292	0.00	30.155 
20:55	52.3	52.3	52.3	54	36.2	0	1	292	0.00	30.155 
21:00	52.2	52.2	52.2	54	36.1	0	1	292	0.00	30.157 
21:05	52.0	52.0	52.0	55	36.3	0	0	---	0.00	30.157 
21:10	51.9	51.9	51.9	55	36.2	0	1	292	0.00	30.157 
21:15	51.7	51.7	51.7	55	36.1	0	1	292	0.00	30.161 
21:20	51.4	51.4	51.4	56	36.2	0	1	292	0.00	30.161 
21:25	51.3	51.3	51.3	57	36.6	0	1	292	0.00	30.161 
21:30	51.1	51.1	51.1	57	36.4	0	1	292	0.00	30.170 
21:35	50.8	50.8	50.8	57	36.1	0	1	292	0.00	30.170 
21:40	50.7	50.7	50.7	58	36.5	0	1	292	0.00	30.170 
21:45	50.4	50.4	50.4	58	36.2	0	2	22	0.00	30.175 
21:50	50.2	50.2	50.2	58	36.0	2	10	90	0.00	30.175 
21:55	50.1	50.1	50.1	58	35.9	2	6	90	0.00	30.175 
22:00	49.9	49.9	49.9	58	35.7	1	3	90	0.00	30.179 
22:05	49.6	49.6	49.6	59	35.9	0	3	90	0.00	30.179 
22:10	49.4	49.4	49.4	59	35.7	1	3	90	0.00	30.179 
22:15	49.1	49.1	49.1	60	35.8	1	3	90	0.00	30.181 
22:20	48.8	48.8	48.8	60	35.5	1	3	90	0.00	30.181 
22:25	48.5	48.5	48.5	61	35.7	0	2	90	0.00	30.181 
22:30	48.2	48.2	48.2	62	35.8	0	1	90	0.00	30.182 
22:35	47.9	47.9	47.9	62	35.5	0	1	90	0.00	30.182 
22:40	47.6	47.6	47.6	62	35.2	0	0	---	0.00	30.182 
22:45	47.4	47.4	47.4	63	35.4	0	0	---	0.00	30.181 
22:50	47.0	47.0	47.0	64	35.5	0	0	---	0.00	30.181 
22:55	46.5	46.5	46.5	65	35.4	0	0	---	0.00	30.181 
23:00	46.1	46.1	46.1	65	35.0	0	0	---	0.00	30.186 
23:05	45.8	45.8	45.8	66	35.1	0	0	---	0.00	30.186 
23:10	45.4	45.4	45.4	67	35.1	0	0	---	0.00	30.186 
23:15	44.9	44.9	44.9	68	35.0	0	0	---	0.00	30.184 
23:20	44.6	44.6	44.6	68	34.7	0	0	---	0.00	30.184 
23:25	44.3	44.3	44.3	70	35.1	0	0	---	0.00	30.184 
23:30	44.1	44.1	44.1	71	35.3	0	0	---	0.00	30.186 
23:35	43.8	43.8	43.8	72	35.4	0	0	---	0.00	30.186 
23:40	43.5	43.5	43.5	72	35.1	0	0	---	0.00	30.186 
23:45	43.3	43.3	43.3	73	35.2	0	0	---	0.00	30.190 
23:50	43.2	43.2	43.2	73	35.1	0	0	---	0.00	30.190 
23:55	43.1	43.1	43.1	73	35.0	0	0	---	0.00	30.190 

CoCoRaHS
IN-AL-39
A2 Web Hosting
Creative Commons License
GoDaddy
search engine by freefind advanced

loaded 2018-11-14 04:55:51 • last modified 2010-11-18 10:43:29
Privacy PolicyDisclaimer
• wx.awcolley.com is powered by PmWiki v.2002016 •
• all content (unless otherwise noted) © 2018 A W Colley